Time;durP1;ratioP1;P1;durP2;ratioP2;P2;SDS_P1;SDS_P2;PMS_P1;PMS_P2;Temp;Humidity;BMP_temperature;BMP_pressure;BME280_temperature;BME280_humidity;BME280_pressure;Samples;Min_cycle;Max_cycle;Signal;HPM_P1;HPM_P2
2022/10/17 00:00:37;;;;;;;20.40;14.47;;;;;;;10.70;78.83;100904.03;5072374;28;20200;-60
2022/10/17 00:03:04;;;;;;;16.87;15.00;;;;;;;10.73;78.25;100901.06;5072756;28;20196;-60
2022/10/17 00:05:30;;;;;;;20.47;14.83;;;;;;;10.69;77.63;100908.53;5072006;28;20702;-60
2022/10/17 00:07:57;;;;;;;16.87;14.63;;;;;;;10.72;78.22;100908.22;5072071;28;20701;-61
2022/10/17 00:10:24;;;;;;;24.67;16.17;;;;;;;10.73;78.51;100914.34;5071962;28;20253;-59
2022/10/17 00:12:52;;;;;;;19.97;15.63;;;;;;;10.62;78.31;100912.00;5072320;28;20643;-61
2022/10/17 00:15:21;;;;;;;16.63;14.77;;;;;;;10.59;78.75;100912.34;5072041;28;20199;-60
2022/10/17 00:17:48;;;;;;;23.87;15.90;;;;;;;10.63;78.38;100919.00;5072006;28;20195;-60
2022/10/17 00:20:15;;;;;;;20.30;15.50;;;;;;;10.68;78.87;100916.66;5072013;28;20249;-60
2022/10/17 00:22:42;;;;;;;19.50;14.73;;;;;;;10.67;78.71;100913.16;5071493;28;20192;-61
2022/10/17 00:25:09;;;;;;;18.10;15.20;;;;;;;10.69;78.77;100915.66;5071142;28;20184;-61
2022/10/17 00:27:37;;;;;;;18.53;14.40;;;;;;;10.67;79.37;100925.66;5071740;28;20196;-60
2022/10/17 00:30:08;;;;;;;17.77;14.40;;;;;;;10.67;78.47;100921.13;5071775;28;20253;-60
2022/10/17 00:32:34;;;;;;;16.87;14.50;;;;;;;10.67;78.76;100917.66;5071871;28;20185;-61
2022/10/17 00:35:02;;;;;;;17.33;13.97;;;;;;;10.64;78.58;100920.66;5071527;28;20227;-60
2022/10/17 00:37:30;;;;;;;15.07;13.20;;;;;;;10.62;78.65;100920.00;5071406;28;20196;-60
2022/10/17 00:39:58;;;;;;;18.47;13.77;;;;;;;10.53;79.36;100912.97;5072305;28;20192;-61
2022/10/17 00:42:24;;;;;;;16.93;13.20;;;;;;;10.52;79.52;100917.47;5071443;28;20192;-60
2022/10/17 00:45:03;;;;;;;14.70;13.07;;;;;;;10.51;79.52;100922.94;5071799;28;20197;-60
2022/10/17 00:47:33;;;;;;;15.63;13.90;;;;;;;10.45;78.98;100926.22;5071404;28;20718;-60
2022/10/17 00:50:00;;;;;;;16.23;12.90;;;;;;;10.41;79.19;100925.72;5071839;28;20276;-61
2022/10/17 00:52:29;;;;;;;14.17;12.37;;;;;;;10.41;78.99;100924.88;5071512;28;20741;-61
2022/10/17 00:55:01;;;;;;;16.67;11.87;;;;;;;10.42;79.30;100921.25;5071832;28;20200;-60
2022/10/17 00:57:30;;;;;;;14.27;10.97;;;;;;;10.46;78.81;100923.41;5071793;28;20191;-60
2022/10/17 00:59:59;;;;;;;14.53;10.93;;;;;;;10.46;78.31;100927.91;5071577;28;20291;-60
2022/10/17 01:02:26;;;;;;;13.60;12.20;;;;;;;10.45;78.17;100928.88;5071622;28;20200;-61
2022/10/17 01:04:58;;;;;;;12.13;10.83;;;;;;;10.43;78.37;100934.38;5071731;28;20706;-60
2022/10/17 01:07:25;;;;;;;12.30;11.13;;;;;;;10.43;78.14;100926.41;5071597;28;20211;-60
2022/10/17 01:09:51;;;;;;;11.33;10.20;;;;;;;10.46;78.54;100927.91;5071974;28;20192;-60
2022/10/17 01:12:23;;;;;;;12.57;11.30;;;;;;;10.45;78.12;100926.22;5072091;28;20234;-61
2022/10/17 01:15:06;;;;;;;11.60;9.97;;;;;;;10.47;78.07;100929.56;5071658;28;20721;-61
2022/10/17 01:17:40;;;;;;;11.20;10.20;;;;;;;10.43;78.20;100923.75;5071998;28;20633;-61
2022/10/17 01:20:40;;;;;;;11.17;10.00;;;;;;;10.40;77.76;100926.72;5072028;28;20200;-60
2022/10/17 01:23:27;;;;;;;11.13;9.80;;;;;;;10.36;77.34;100932.50;5074262;28;20203;-61
2022/10/17 01:25:58;;;;;;;11.50;9.67;;;;;;;10.35;77.30;100936.16;5075303;28;20262;-60
2022/10/17 01:28:52;;;;;;;10.33;9.43;;;;;;;10.33;77.36;100935.47;5071058;28;20182;-60
2022/10/17 01:31:23;;;;;;;10.53;9.27;;;;;;;10.31;77.84;100927.69;5055432;28;20722;-60
2022/10/17 01:34:02;;;;;;;11.73;9.30;;;;;;;10.29;77.70;100934.94;5065178;28;20189;-60
2022/10/17 01:36:38;;;;;;;12.53;9.63;;;;;;;10.27;77.14;100928.97;5075345;28;20546;-61
2022/10/17 01:39:15;;;;;;;11.27;10.27;;;;;;;10.18;77.48;100935.22;5075225;28;20188;-60
2022/10/17 01:41:48;;;;;;;11.33;9.50;;;;;;;10.15;77.70;100924.09;5075092;28;20245;-60
2022/10/17 01:44:20;;;;;;;11.90;9.97;;;;;;;10.11;79.14;100920.94;5075357;28;20548;-61
2022/10/17 01:46:50;;;;;;;11.97;8.93;;;;;;;10.11;77.90;100928.06;5074667;28;20698;-62
2022/10/17 01:49:22;;;;;;;10.80;9.40;;;;;;;10.09;78.22;100922.09;5075261;28;20192;-61
2022/10/17 01:51:52;;;;;;;10.83;9.80;;;;;;;10.07;78.47;100932.00;5075419;28;20188;-61
2022/10/17 01:54:24;;;;;;;11.67;9.93;;;;;;;10.03;78.12;100928.81;5074606;28;20784;-61
2022/10/17 01:57:01;;;;;;;10.83;9.50;;;;;;;10.00;78.64;100936.25;5074849;28;20184;-61
2022/10/17 01:59:36;;;;;;;11.00;9.80;;;;;;;9.93;79.10;100937.88;5074850;28;20233;-61
2022/10/17 02:02:06;;;;;;;10.87;9.77;;;;;;;9.89;78.95;100944.50;5075008;28;20241;-61
2022/10/17 02:04:33;;;;;;;12.20;9.43;;;;;;;9.85;78.26;100948.44;5075222;28;20192;-61
2022/10/17 02:07:06;;;;;;;10.93;9.83;;;;;;;9.83;79.24;100943.28;5074600;28;20224;-61
2022/10/17 02:09:33;;;;;;;10.23;9.17;;;;;;;9.82;78.99;100946.94;5075421;28;20188;-61
2022/10/17 02:12:15;;;;;;;20.97;9.67;;;;;;;9.77;79.41;100940.44;5074869;28;20223;-61
2022/10/17 02:14:54;;;;;;;12.40;9.87;;;;;;;9.79;79.28;100954.38;5074485;28;20619;-61
2022/10/17 02:17:36;;;;;;;11.23;9.57;;;;;;;9.74;79.95;100962.81;5074608;28;20192;-60
2022/10/17 02:20:15;;;;;;;10.70;9.43;;;;;;;9.70;79.17;100955.28;5074488;28;20188;-61
2022/10/17 02:22:47;;;;;;;12.47;10.03;;;;;;;9.66;79.67;100962.75;5074560;28;20193;-61
2022/10/17 02:25:23;;;;;;;14.00;9.27;;;;;;;9.63;79.57;100960.38;5074667;28;20176;-63
2022/10/17 02:27:56;;;;;;;12.37;9.67;;;;;;;9.60;79.83;100965.19;5074351;28;20211;-61
2022/10/17 02:30:31;;;;;;;11.23;9.43;;;;;;;9.51;80.94;100960.78;5074729;28;20188;-62
2022/10/17 02:33:04;;;;;;;10.40;9.30;;;;;;;9.49;80.39;100960.94;5074261;28;20253;-61
2022/10/17 02:35:35;;;;;;;13.40;9.47;;;;;;;9.50;80.24;100962.63;5074269;28;20242;-61
2022/10/17 02:38:06;;;;;;;11.07;10.00;;;;;;;9.47;81.25;100973.53;5074711;28;20192;-61
2022/10/17 02:40:33;;;;;;;10.50;9.33;;;;;;;9.45;80.62;100977.31;5074386;28;20184;-61
2022/10/17 02:43:00;;;;;;;11.87;10.60;;;;;;;9.36;79.66;100984.34;5073838;28;20253;-61
2022/10/17 02:45:29;;;;;;;10.83;9.90;;;;;;;9.26;80.22;100983.59;5074107;28;20287;-62
2022/10/17 02:48:02;;;;;;;11.63;10.40;;;;;;;9.10;80.94;100987.91;5073958;28;20277;-61
2022/10/17 02:50:38;;;;;;;11.90;9.83;;;;;;;8.99;81.91;100996.09;5073742;28;20609;-61
2022/10/17 02:53:10;;;;;;;10.83;9.67;;;;;;;8.85;82.58;100991.28;5074060;28;20639;-61
2022/10/17 02:55:43;;;;;;;11.07;9.93;;;;;;;8.86;82.95;100995.63;5073310;28;20591;-61
2022/10/17 02:58:15;;;;;;;11.77;10.43;;;;;;;8.81;83.02;100993.41;5073443;28;20733;-61
2022/10/17 03:00:43;;;;;;;12.80;10.13;;;;;;;8.83;83.23;100995.91;5073536;28;20241;-62
2022/10/17 03:03:21;;;;;;;11.27;10.27;;;;;;;8.87;82.65;100991.97;5073016;28;20192;-61
2022/10/17 03:05:48;;;;;;;12.63;11.30;;;;;;;8.89;82.65;100992.66;5073460;28;20635;-60
2022/10/17 03:08:14;;;;;;;11.23;10.23;;;;;;;8.91;82.07;101007.41;5073552;28;20222;-61
2022/10/17 03:10:41;;;;;;;16.50;9.67;;;;;;;8.94;82.27;101007.13;5073692;28;20228;-61
2022/10/17 03:13:08;;;;;;;11.53;9.97;;;;;;;8.90;82.51;100999.63;5073303;28;20624;-61
2022/10/17 03:15:35;;;;;;;17.03;9.70;;;;;;;8.88;82.29;100996.28;5073720;28;20187;-61
2022/10/17 03:18:01;;;;;;;10.90;9.77;;;;;;;8.88;82.88;100996.28;5073367;28;20225;-61
2022/10/17 03:20:29;;;;;;;13.67;10.77;;;;;;;8.79;83.03;100998.00;5073044;28;20196;-60
2022/10/17 03:22:56;;;;;;;11.33;10.43;;;;;;;8.73;82.44;101001.25;5072933;28;20566;-61
2022/10/17 03:25:23;;;;;;;10.43;9.43;;;;;;;8.61;83.07;100999.78;5073172;28;20184;-61
2022/10/17 03:27:49;;;;;;;11.83;9.70;;;;;;;8.56;83.79;100999.38;5072506;28;20216;-61
2022/10/17 03:30:16;;;;;;;12.20;10.47;;;;;;;8.61;82.82;101012.16;5072964;28;20663;-61
2022/10/17 03:32:43;;;;;;;17.07;10.37;;;;;;;8.49;83.19;101000.13;5072334;28;20200;-62
2022/10/17 03:35:10;;;;;;;19.70;10.10;;;;;;;8.46;83.77;101005.72;5071882;28;20245;-61
2022/10/17 03:37:38;;;;;;;13.20;9.50;;;;;;;8.45;84.21;101001.41;5072796;28;20261;-62
2022/10/17 03:40:05;;;;;;;15.37;10.53;;;;;;;8.53;84.19;101004.16;5071805;28;20636;-61
2022/10/17 03:42:32;;;;;;;17.20;10.33;;;;;;;8.58;83.80;100996.59;5072844;28;20261;-60
2022/10/17 03:44:59;;;;;;;13.93;9.50;;;;;;;8.63;83.29;101004.94;5072247;28;20200;-61
2022/10/17 03:47:26;;;;;;;11.93;9.90;;;;;;;8.63;83.85;100994.34;5072647;28;20231;-61
2022/10/17 03:49:53;;;;;;;11.13;9.60;;;;;;;8.53;84.60;101006.81;5072697;28;20222;-60
2022/10/17 03:52:20;;;;;;;11.57;9.40;;;;;;;8.59;84.04;101007.03;5073212;28;20287;-60
2022/10/17 03:54:49;;;;;;;15.87;9.93;;;;;;;8.66;84.02;101020.53;5072205;28;20225;-61
2022/10/17 03:57:15;;;;;;;15.50;9.90;;;;;;;8.70;83.10;101011.31;5072424;28;20207;-61
2022/10/17 03:59:42;;;;;;;16.60;10.23;;;;;;;8.68;83.71;101019.41;5072597;28;20192;-61
2022/10/17 04:02:09;;;;;;;23.03;10.47;;;;;;;8.69;84.32;101009.63;5072166;28;20655;-61
2022/10/17 04:04:36;;;;;;;13.33;10.33;;;;;;;8.67;84.41;101006.31;5071771;28;20663;-61
2022/10/17 04:07:02;;;;;;;15.53;10.13;;;;;;;8.74;83.57;101002.09;5072103;28;20220;-61
2022/10/17 04:09:29;;;;;;;23.23;10.90;;;;;;;8.79;83.74;100999.81;5072530;28;20191;-61
2022/10/17 04:11:57;;;;;;;14.73;9.93;;;;;;;8.79;83.31;101010.44;5071685;28;20227;-62
2022/10/17 04:14:24;;;;;;;13.93;9.30;;;;;;;8.65;82.96;100976.47;5071426;28;20191;-62
2022/10/17 04:16:52;;;;;;;17.50;9.30;;;;;;;8.77;83.42;101007.06;5071925;28;20207;-61
2022/10/17 04:19:19;;;;;;;17.33;10.53;;;;;;;8.82;83.41;101016.25;5071143;28;20234;-60
2022/10/17 04:21:45;;;;;;;18.10;9.70;;;;;;;8.89;82.16;101016.50;5071685;28;20266;-60
2022/10/17 04:24:12;;;;;;;15.73;9.60;;;;;;;8.88;82.18;101014.84;5071253;28;20199;-61
2022/10/17 04:26:39;;;;;;;20.17;10.10;;;;;;;8.88;82.80;101014.84;5071436;28;20192;-60
2022/10/17 04:29:07;;;;;;;28.63;11.33;;;;;;;8.86;81.56;101014.16;5071440;28;20748;-60
2022/10/17 04:31:34;;;;;;;19.40;11.07;;;;;;;8.92;82.52;101021.50;5070871;28;20713;-60
2022/10/17 04:34:00;;;;;;;24.07;13.63;;;;;;;8.96;82.60;101029.03;5071892;28;20196;-60
2022/10/17 04:36:27;;;;;;;24.10;14.50;;;;;;;8.98;82.12;101031.50;5071403;28;20195;-60
2022/10/17 04:38:54;;;;;;;29.83;15.13;;;;;;;8.93;81.98;101023.16;5071506;28;20624;-60
2022/10/17 04:41:20;;;;;;;29.13;19.17;;;;;;;8.93;81.68;101034.63;5071561;28;20622;-60
2022/10/17 04:43:47;;;;;;;33.17;18.03;;;;;;;8.96;81.73;101046.72;5071414;28;20200;-62
2022/10/17 04:46:15;;;;;;;39.83;18.30;;;;;;;8.94;82.12;101038.09;5070895;28;20638;-61
2022/10/17 04:48:42;;;;;;;57.27;19.80;;;;;;;8.89;82.84;101040.34;5071114;28;20219;-61
2022/10/17 04:51:12;;;;;;;40.23;18.80;;;;;;;8.87;82.00;101037.03;5070539;28;20643;-60
2022/10/17 04:53:39;;;;;;;29.80;14.17;;;;;;;8.91;82.74;101033.09;5070686;28;20231;-60
2022/10/17 04:56:10;;;;;;;25.10;12.40;;;;;;;8.92;82.38;101042.69;5070196;28;20547;-60
2022/10/17 04:58:37;;;;;;;16.83;11.23;;;;;;;8.97;81.91;101046.59;5071177;28;20199;-60
2022/10/17 05:01:05;;;;;;;25.73;11.10;;;;;;;8.97;81.26;101041.28;5071503;28;20192;-61
2022/10/17 05:03:34;;;;;;;17.93;10.77;;;;;;;8.88;82.55;101051.94;5070663;28;20196;-61
2022/10/17 05:06:05;;;;;;;22.63;11.77;;;;;;;9.02;83.03;101054.06;5070694;28;20188;-61
2022/10/17 05:08:32;;;;;;;19.67;10.80;;;;;;;9.29;82.44;101068.16;5070890;28;20212;-61
2022/10/17 05:10:58;;;;;;;15.40;9.87;;;;;;;9.52;80.05;101073.88;5070951;28;20228;-60
2022/10/17 05:13:25;;;;;;;9.90;9.10;;;;;;;9.81;78.50;101090.41;5070778;28;20192;-62
2022/10/17 05:15:52;;;;;;;16.80;9.00;;;;;;;10.03;77.71;101089.91;5071504;28;20199;-60
2022/10/17 05:18:18;;;;;;;11.07;8.40;;;;;;;10.30;77.09;101095.16;5070993;28;20226;-61
2022/10/17 05:20:47;;;;;;;12.07;8.07;;;;;;;10.70;77.35;101095.38;5066401;28;20196;-59
2022/10/17 05:23:13;;;;;;;16.10;8.63;;;;;;;11.26;77.06;101092.16;5071064;28;20604;-60
2022/10/17 05:25:40;;;;;;;9.13;6.07;;;;;;;11.81;83.59;101080.84;5069238;28;20247;-66
2022/10/17 05:28:07;;;;;;;7.97;6.87;;;;;;;12.83;82.18;101084.53;5070808;28;20761;-65
2022/10/17 05:30:35;;;;;;;11.97;8.00;;;;;;;13.80;74.47;101115.94;5070553;28;20204;-64
2022/10/17 05:33:02;;;;;;;13.17;8.03;;;;;;;14.60;68.77;101126.00;5068958;28;20286;-70
2022/10/17 05:35:29;;;;;;;15.03;7.87;;;;;;;15.35;61.64;101143.56;5067753;28;20277;-60
2022/10/17 05:37:58;;;;;;;7.80;7.10;;;;;;;15.52;56.34;101150.38;5066122;28;20946;-63
2022/10/17 05:40:24;;;;;;;9.90;7.07;;;;;;;15.45;57.21;101144.09;5064042;28;20254;-63
2022/10/17 05:42:51;;;;;;;8.40;6.27;;;;;;;15.42;60.72;101136.47;5061740;28;20188;-60
2022/10/17 05:45:18;;;;;;;8.27;6.73;;;;;;;15.94;56.13;101158.47;5063252;28;20614;-59
2022/10/17 05:47:44;;;;;;;8.73;7.50;;;;;;;16.04;54.26;101150.13;5058789;28;20350;-59
2022/10/17 05:50:11;;;;;;;8.20;7.43;;;;;;;15.99;54.58;101152.56;5070980;28;20656;-59
2022/10/17 05:52:38;;;;;;;10.80;6.80;;;;;;;16.04;54.16;101154.69;5071518;28;20196;-60
2022/10/17 05:55:07;;;;;;;18.03;8.23;;;;;;;16.12;53.37;101158.06;5071432;28;20258;-60
2022/10/17 05:57:34;;;;;;;18.67;9.40;;;;;;;15.82;53.30;101157.31;5072355;28;20635;-60
2022/10/17 06:00:01;;;;;;;11.10;8.97;;;;;;;15.41;55.18;101158.88;5071794;28;20247;-59
2022/10/17 06:02:27;;;;;;;9.00;7.03;;;;;;;15.35;54.58;101154.28;5061700;28;20725;-63
2022/10/17 06:04:54;;;;;;;6.60;6.00;;;;;;;15.37;58.46;101146.91;5051279;28;20197;-61
2022/10/17 06:07:21;;;;;;;11.20;7.60;;;;;;;15.42;54.54;101155.22;5051305;28;20270;-60
2022/10/17 06:09:47;;;;;;;7.80;6.87;;;;;;;15.79;54.73;101167.59;5054825;28;20633;-59
2022/10/17 06:12:15;;;;;;;11.00;7.27;;;;;;;16.03;54.19;101169.94;5054884;28;20220;-62
2022/10/17 06:14:42;;;;;;;26.27;8.03;;;;;;;16.04;52.57;101176.94;5072603;28;20188;-61
2022/10/17 06:17:09;;;;;;;12.17;7.67;;;;;;;15.89;52.89;101168.94;5073967;28;20192;-62
2022/10/17 06:19:35;;;;;;;8.30;7.17;;;;;;;15.98;52.74;101182.25;5059780;28;20192;-61
2022/10/17 06:22:02;;;;;;;9.83;7.40;;;;;;;16.27;52.25;101190.16;5049805;28;20193;-61
2022/10/17 06:24:29;;;;;;;14.17;7.73;;;;;;;16.54;52.98;101184.88;5051247;28;20254;-60
2022/10/17 06:26:56;;;;;;;12.83;7.67;;;;;;;16.57;50.39;101197.09;5071821;28;20214;-59
2022/10/17 06:29:24;;;;;;;17.00;8.03;;;;;;;16.67;51.57;101192.22;5071580;28;20303;-60
2022/10/17 06:31:51;;;;;;;18.00;7.93;;;;;;;16.41;51.51;101182.09;5071282;28;20203;-60
2022/10/17 06:34:18;;;;;;;11.63;7.40;;;;;;;16.71;54.00;101185.44;5074299;28;20188;-60
2022/10/17 06:36:45;;;;;;;9.30;5.40;;;;;;;17.69;61.81;101176.16;5054609;28;20200;-60
2022/10/17 06:39:12;;;;;;;9.27;6.53;;;;;;;18.61;53.59;101191.47;5046782;28;20262;-58
2022/10/17 06:41:39;;;;;;;11.73;7.07;;;;;;;19.76;49.68;101196.03;5048080;28;20197;-58
2022/10/17 06:44:09;;;;;;;7.70;6.97;;;;;;;20.80;42.07;101199.97;5045735;28;20189;-61
2022/10/17 06:46:38;;;;;;;12.97;7.97;;;;;;;20.93;39.21;101197.19;5050866;28;20207;-62
2022/10/17 06:49:05;;;;;;;24.80;9.47;;;;;;;20.86;39.67;101194.50;5067223;28;20281;-60
2022/10/17 06:51:34;;;;;;;14.17;8.40;;;;;;;20.48;39.65;101191.09;5067863;28;20216;-61
2022/10/17 06:54:01;;;;;;;13.10;8.17;;;;;;;20.15;39.47;101195.88;5067529;28;20740;-62
2022/10/17 06:56:28;;;;;;;12.97;6.47;;;;;;;19.92;47.02;101179.34;5059904;28;20242;-60
2022/10/17 06:58:54;;;;;;;11.83;6.93;;;;;;;20.42;45.62;101186.56;5044650;28;20672;-59
2022/10/17 07:01:21;;;;;;;8.20;6.60;;;;;;;21.26;42.84;101193.09;5051595;28;20258;-58
2022/10/17 07:03:49;;;;;;;41.60;9.53;;;;;;;21.34;37.85;101192.81;5050968;28;20258;-59
2022/10/17 07:06:16;;;;;;;8.17;6.93;;;;;;;20.75;39.66;101186.31;5043635;28;20664;-59
2022/10/17 07:08:44;;;;;;;9.13;7.33;;;;;;;20.85;39.40;101176.66;5049833;28;20699;-69
2022/10/17 07:11:12;;;;;;;12.50;7.27;;;;;;;20.96;41.88;101189.47;5046377;28;20231;-60
2022/10/17 07:13:39;;;;;;;8.20;7.40;;;;;;;21.30;38.40;101196.19;5044903;28;20204;-63
2022/10/17 07:16:06;;;;;;;8.20;6.83;;;;;;;21.85;39.05;101198.66;5048579;28;20207;-62
2022/10/17 07:18:33;;;;;;;11.80;6.27;;;;;;;22.58;37.57;101202.84;5045486;28;20253;-62
2022/10/17 07:21:02;;;;;;;10.40;7.17;;;;;;;22.94;37.44;101205.38;5048351;28;20631;-64
2022/10/17 07:23:29;;;;;;;8.30;6.47;;;;;;;22.84;38.75;101196.16;5049415;28;20189;-63
2022/10/17 07:26:01;;;;;;;11.93;7.03;;;;;;;23.12;38.05;101216.09;5058917;28;20671;-63
2022/10/17 07:28:28;;;;;;;10.87;7.97;;;;;;;23.48;36.45;101220.47;5068653;28;20860;-64
2022/10/17 07:30:55;;;;;;;8.80;6.77;;;;;;;23.32;37.11;101216.59;5067900;28;20228;-62
2022/10/17 07:33:22;;;;;;;8.20;7.40;;;;;;;23.53;35.41;101215.97;5070326;28;20199;-61
2022/10/17 07:35:48;;;;;;;9.43;7.20;;;;;;;23.26;34.59;101214.84;5068093;28;20246;-63
2022/10/17 07:38:16;;;;;;;8.60;6.47;;;;;;;23.10;37.39;101207.38;5071220;28;20192;-66
2022/10/17 07:40:43;;;;;;;13.83;7.03;;;;;;;23.47;40.48;101207.97;5068760;28;20580;-68
2022/10/17 07:43:10;;;;;;;7.20;6.53;;;;;;;23.69;34.53;101219.84;5070061;28;20259;-64
2022/10/17 07:45:37;;;;;;;8.90;7.80;;;;;;;22.78;35.82;101221.50;5070702;28;20193;-64
2022/10/17 07:48:04;;;;;;;51.10;12.97;;;;;;;22.55;37.95;101222.28;5069896;28;20749;-64
2022/10/17 07:50:32;;;;;;;14.23;8.07;;;;;;;22.39;36.34;101211.25;5068566;28;20229;-70
2022/10/17 07:52:58;;;;;;;15.80;7.30;;;;;;;22.42;36.31;101217.03;5070075;28;20291;-77
2022/10/17 07:55:26;;;;;;;36.93;9.23;;;;;;;22.51;36.29;101212.97;5068574;28;20277;-71
2022/10/17 07:57:53;;;;;;;10.23;6.80;;;;;;;22.57;36.07;101206.63;5070938;28;20249;-71
2022/10/17 08:00:20;;;;;;;9.90;6.57;;;;;;;22.51;36.25;101201.31;5068509;28;20226;-68
2022/10/17 08:02:47;;;;;;;7.40;6.40;;;;;;;22.54;36.18;101204.38;5068538;28;20188;-70
2022/10/17 08:05:14;;;;;;;21.73;7.90;;;;;;;22.41;35.79;101199.13;5069470;28;20196;-69
2022/10/17 08:07:40;;;;;;;95.97;15.67;;;;;;;22.32;35.98;101197.81;5068311;28;20633;-73
2022/10/17 08:10:08;;;;;;;37.10;8.37;;;;;;;22.45;36.30;101197.59;5067263;28;20192;-67
2022/10/17 08:12:36;;;;;;;14.27;6.90;;;;;;;22.49;36.39;101193.41;5069500;28;20610;-71
2022/10/17 08:15:04;;;;;;;10.87;7.00;;;;;;;22.66;36.06;101191.66;5069948;28;20196;-68
2022/10/17 08:17:30;;;;;;;12.67;5.90;;;;;;;22.91;35.60;101191.47;5069426;28;20199;-72
2022/10/17 08:19:57;;;;;;;23.10;7.17;;;;;;;23.17;36.03;101194.53;5069597;28;20192;-65
2022/10/17 08:22:24;;;;;;;14.57;7.37;;;;;;;22.75;37.25;101192.97;5069824;28;20188;-65
2022/10/17 08:24:51;;;;;;;20.90;7.47;;;;;;;23.11;36.68;101192.75;5070789;28;20197;-64
2022/10/17 08:27:22;;;;;;;8.33;5.80;;;;;;;23.40;34.93;101196.44;5071015;28;20733;-63
2022/10/17 08:29:52;;;;;;;10.50;7.10;;;;;;;23.45;34.43;101194.66;5055519;28;20208;-63
2022/10/17 08:32:19;;;;;;;18.23;8.10;;;;;;;23.31;34.92;101195.97;5052120;28;20271;-63
2022/10/17 08:34:45;;;;;;;7.73;6.00;;;;;;;23.18;34.87;101192.63;5069264;28;20191;-64
2022/10/17 08:37:13;;;;;;;10.20;6.47;;;;;;;23.05;35.91;101193.72;5072524;28;20257;-63
2022/10/17 08:39:40;;;;;;;11.07;6.10;;;;;;;22.91;36.29;101191.47;5072207;28;20202;-63
2022/10/17 08:42:29;;;;;;;13.23;6.50;;;;;;;23.05;35.25;101199.13;5072290;28;20574;-62
2022/10/17 08:45:11;;;;;;;14.93;6.70;;;;;;;23.10;35.41;101191.13;5072331;28;20192;-62
2022/10/17 08:47:40;;;;;;;13.07;6.80;;;;;;;23.23;34.45;101190.09;5072406;28;20188;-63
2022/10/17 08:50:13;;;;;;;6.20;5.53;;;;;;;23.45;34.92;101194.66;5071785;28;20216;-63
2022/10/17 08:52:44;;;;;;;10.27;6.60;;;;;;;23.61;33.50;101196.59;5071933;28;20187;-62
2022/10/17 08:55:16;;;;;;;7.23;6.63;;;;;;;23.67;33.77;101197.53;5071943;28;20185;-62
2022/10/17 08:57:43;;;;;;;6.10;5.60;;;;;;;23.79;33.85;101195.63;5072341;28;20188;-63
2022/10/17 09:00:17;;;;;;;35.80;7.33;;;;;;;23.99;33.32;101186.03;5071854;28;20733;-63
2022/10/17 09:02:57;;;;;;;9.10;5.50;;;;;;;24.30;32.54;101181.97;5071429;28;20189;-63
2022/10/17 09:05:33;;;;;;;8.20;5.40;;;;;;;24.19;32.28;101180.13;5071888;28;20184;-63
2022/10/17 09:08:11;;;;;;;7.13;5.57;;;;;;;24.33;32.22;101176.88;5071609;28;20238;-62
2022/10/17 09:10:51;;;;;;;5.80;5.40;;;;;;;24.44;32.06;101173.28;5068571;28;20296;-65
2022/10/17 09:13:27;;;;;;;5.73;5.23;;;;;;;24.57;31.92;101178.38;5068458;28;20202;-63
2022/10/17 09:16:08;;;;;;;6.80;5.77;;;;;;;24.79;31.41;101170.34;5066685;28;20251;-68
2022/10/17 09:18:38;;;;;;;7.43;5.67;;;;;;;24.99;30.54;101174.19;5068323;28;20278;-67
2022/10/17 09:21:19;;;;;;;6.37;5.47;;;;;;;25.02;29.89;101169.34;5069650;28;20244;-69
2022/10/17 09:23:50;;;;;;;7.33;5.37;;;;;;;25.20;30.08;101159.00;5068407;28;20193;-65
2022/10/17 09:26:17;;;;;;;11.47;5.53;;;;;;;25.11;29.36;101165.09;5072183;28;20186;-66
2022/10/17 09:28:46;;;;;;;6.03;5.60;;;;;;;25.00;28.82;101167.66;5064051;28;20219;-66
2022/10/17 09:31:20;;;;;;;7.80;4.30;;;;;;;24.66;29.67;101170.66;5051431;28;20277;-66
2022/10/17 09:33:49;;;;;;;6.83;5.00;;;;;;;24.52;29.55;101170.16;5060160;28;20216;-63
2022/10/17 09:36:19;;;;;;;5.67;4.43;;;;;;;24.86;31.84;101160.94;5071910;28;20203;-63
2022/10/17 09:38:49;;;;;;;5.47;5.10;;;;;;;24.95;29.52;101164.06;5071473;28;20265;-64
2022/10/17 09:41:19;;;;;;;5.73;5.23;;;;;;;25.07;29.57;101158.53;5069476;28;20554;-64
2022/10/17 09:43:46;;;;;;;8.40;4.80;;;;;;;24.78;30.14;101147.75;5070351;28;20724;-63
2022/10/17 09:46:23;;;;;;;10.17;4.77;;;;;;;24.73;30.95;101150.41;5070141;28;20225;-64
2022/10/17 09:48:54;;;;;;;6.97;4.70;;;;;;;24.96;28.11;101155.63;5071464;28;20211;-65
2022/10/17 09:51:21;;;;;;;12.77;3.70;;;;;;;24.59;30.13;101151.75;5074794;28;20195;-63
2022/10/17 09:53:53;;;;;;;10.30;4.77;;;;;;;24.72;29.01;101148.78;5075188;28;20194;-63
2022/10/17 09:56:20;;;;;;;5.30;4.10;;;;;;;24.72;27.78;101154.22;5075945;28;20187;-63
2022/10/17 09:58:49;;;;;;;4.90;4.23;;;;;;;24.69;28.85;101143.00;5074796;28;20671;-63
2022/10/17 10:01:19;;;;;;;6.70;3.83;;;;;;;24.82;27.93;101151.63;5074429;28;20272;-64
2022/10/17 10:03:46;;;;;;;8.30;3.80;;;;;;;24.98;29.74;101141.00;5072999;28;20245;-64
2022/10/17 10:06:16;;;;;;;12.07;5.07;;;;;;;25.11;27.92;101127.84;5063924;28;20195;-64
2022/10/17 10:08:51;;;;;;;7.50;4.60;;;;;;;25.22;27.86;101132.34;5071990;28;20220;-64
2022/10/17 10:11:18;;;;;;;12.63;4.63;;;;;;;25.19;27.91;101132.03;5075215;28;20230;-63
2022/10/17 10:13:48;;;;;;;11.30;5.00;;;;;;;25.15;26.65;101125.44;5066826;28;20194;-65
2022/10/17 10:16:20;;;;;;;7.60;3.33;;;;;;;25.14;26.12;101123.81;5065502;28;20206;-65
2022/10/17 10:18:47;;;;;;;10.17;3.70;;;;;;;25.21;27.26;101113.53;5070012;28;20188;-66
2022/10/17 10:21:18;;;;;;;6.47;2.97;;;;;;;25.11;25.11;101124.31;5069015;28;20748;-68
2022/10/17 10:24:02;;;;;;;9.30;3.30;;;;;;;25.19;26.19;101115.72;5052868;28;20196;-66
2022/10/17 10:26:33;;;;;;;5.47;3.23;;;;;;;25.21;24.62;101113.53;5068928;28;20241;-66
2022/10/17 10:29:03;;;;;;;5.27;3.43;;;;;;;25.33;25.42;101106.13;5068467;28;20905;-67
2022/10/17 10:31:35;;;;;;;3.20;2.90;;;;;;;25.52;25.71;101104.72;5071331;28;20253;-66
2022/10/17 10:34:15;;;;;;;3.83;2.50;;;;;;;25.56;22.87;101116.75;5073579;28;20203;-66
2022/10/17 10:36:52;;;;;;;9.30;3.03;;;;;;;25.64;25.34;101108.13;5070961;28;20825;-64
2022/10/17 10:39:43;;;;;;;21.47;4.13;;;;;;;25.45;23.61;101104.94;5055520;28;20246;-64
2022/10/17 10:42:24;;;;;;;6.20;3.00;;;;;;;25.33;24.53;101084.34;5041439;28;21086;-65
2022/10/17 10:44:53;;;;;;;4.83;2.97;;;;;;;25.21;23.74;101097.22;5041760;28;20184;-63
2022/10/17 10:47:24;;;;;;;5.30;4.33;;;;;;;25.30;22.31;101095.72;5045602;28;20199;-63
2022/10/17 10:49:53;;;;;;;4.73;2.30;;;;;;;25.14;24.29;101091.16;5047404;28;20204;-64
2022/10/17 10:52:29;;;;;;;4.67;3.07;;;;;;;24.96;24.27;101095.00;5048244;28;20196;-65
2022/10/17 10:55:04;;;;;;;3.13;2.93;;;;;;;24.71;23.66;101090.00;5045607;28;20257;-65
2022/10/17 10:57:34;;;;;;;5.93;3.17;;;;;;;24.66;24.83;101089.13;5049483;28;20191;-64
2022/10/17 11:00:11;;;;;;;2.77;2.57;;;;;;;24.70;24.81;101085.66;5045317;28;20200;-65
2022/10/17 11:02:51;;;;;;;2.20;2.00;;;;;;;24.61;24.99;101070.84;5067363;28;20226;-64
2022/10/17 11:05:23;;;;;;;4.20;2.40;;;;;;;24.65;25.59;101074.72;5065967;28;20191;-65
2022/10/17 11:07:54;;;;;;;4.73;2.33;;;;;;;24.40;24.38;101079.75;5070019;28;20608;-64
2022/10/17 11:10:28;;;;;;;3.23;2.50;;;;;;;24.27;24.69;101069.22;5068613;28;20234;-64
2022/10/17 11:13:01;;;;;;;3.70;2.60;;;;;;;24.32;26.89;101066.56;5056496;28;20241;-65
2022/10/17 11:15:33;;;;;;;6.07;2.37;;;;;;;24.44;26.74;101074.63;5051164;28;20442;-65
2022/10/17 11:18:05;;;;;;;4.00;2.80;;;;;;;24.58;26.52;101071.31;5065661;28;20245;-66
2022/10/17 11:20:39;;;;;;;2.53;2.20;;;;;;;24.59;26.20;101064.00;5067035;28;20615;-65
2022/10/17 11:23:18;;;;;;;5.30;2.20;;;;;;;24.69;26.47;101066.88;5069499;28;20189;-66
2022/10/17 11:25:47;;;;;;;4.20;2.23;;;;;;;24.56;26.27;101059.03;5069691;28;20218;-64
2022/10/17 11:28:16;;;;;;;4.27;2.83;;;;;;;24.52;25.45;101061.44;5071221;28;20199;-65
2022/10/17 11:30:48;;;;;;;10.63;3.43;;;;;;;23.86;26.06;101045.13;5069463;28;20794;-63